sensor_id;sensor_type;location;lat;lon;timestamp;temperature;humidity
16485;DHT22;8353;47.856;12.344;2023-04-01T00:00:40;10.90;99.90
16485;DHT22;8353;47.856;12.344;2023-04-01T00:03:28;10.90;99.90
16485;DHT22;8353;47.856;12.344;2023-04-01T00:06:17;10.90;99.90
16485;DHT22;8353;47.856;12.344;2023-04-01T00:09:04;10.90;99.90
16485;DHT22;8353;47.856;12.344;2023-04-01T00:11:51;11.00;99.90
16485;DHT22;8353;47.856;12.344;2023-04-01T00:14:37;10.90;99.90
16485;DHT22;8353;47.856;12.344;2023-04-01T00:17:25;10.80;99.90
16485;DHT22;8353;47.856;12.344;2023-04-01T00:20:14;10.80;99.90
16485;DHT22;8353;47.856;12.344;2023-04-01T00:23:01;10.80;99.90
16485;DHT22;8353;47.856;12.344;2023-04-01T00:25:48;10.80;99.90
16485;DHT22;8353;47.856;12.344;2023-04-01T00:28:35;10.80;99.90
16485;DHT22;8353;47.856;12.344;2023-04-01T00:31:22;10.70;99.90
16485;DHT22;8353;47.856;12.344;2023-04-01T00:34:09;10.80;99.90
16485;DHT22;8353;47.856;12.344;2023-04-01T00:36:57;10.80;99.90
16485;DHT22;8353;47.856;12.344;2023-04-01T00:39:44;10.80;99.90
16485;DHT22;8353;47.856;12.344;2023-04-01T00:42:31;10.70;99.90
16485;DHT22;8353;47.856;12.344;2023-04-01T00:45:28;10.70;99.90
16485;DHT22;8353;47.856;12.344;2023-04-01T00:48:18;10.60;99.90
16485;DHT22;8353;47.856;12.344;2023-04-01T00:51:08;10.50;99.90
16485;DHT22;8353;47.856;12.344;2023-04-01T00:53:58;10.30;99.90
16485;DHT22;8353;47.856;12.344;2023-04-01T00:56:49;10.30;99.90
16485;DHT22;8353;47.856;12.344;2023-04-01T00:59:44;10.30;99.90
16485;DHT22;8353;47.856;12.344;2023-04-01T01:02:32;10.30;99.90
16485;DHT22;8353;47.856;12.344;2023-04-01T01:05:26;10.40;99.90
16485;DHT22;8353;47.856;12.344;2023-04-01T01:08:21;10.40;99.90
16485;DHT22;8353;47.856;12.344;2023-04-01T01:11:11;10.30;99.90
16485;DHT22;8353;47.856;12.344;2023-04-01T01:14:05;10.10;99.90
16485;DHT22;8353;47.856;12.344;2023-04-01T01:17:02;10.10;99.90
16485;DHT22;8353;47.856;12.344;2023-04-01T01:20:14;10.20;99.90
16485;DHT22;8353;47.856;12.344;2023-04-01T01:26:50;10.20;99.90
16485;DHT22;8353;47.856;12.344;2023-04-01T01:30:09;10.20;99.90
16485;DHT22;8353;47.856;12.344;2023-04-01T01:33:12;10.20;99.90
16485;DHT22;8353;47.856;12.344;2023-04-01T01:36:02;10.30;99.90
16485;DHT22;8353;47.856;12.344;2023-04-01T01:38:51;10.40;99.90
16485;DHT22;8353;47.856;12.344;2023-04-01T01:41:40;10.40;99.90
16485;DHT22;8353;47.856;12.344;2023-04-01T01:44:29;10.50;99.90
16485;DHT22;8353;47.856;12.344;2023-04-01T01:47:19;10.40;99.90
16485;DHT22;8353;47.856;12.344;2023-04-01T01:50:08;10.40;99.90
16485;DHT22;8353;47.856;12.344;2023-04-01T01:53:05;10.40;99.90
16485;DHT22;8353;47.856;12.344;2023-04-01T01:55:52;10.50;99.90
16485;DHT22;8353;47.856;12.344;2023-04-01T01:58:42;10.60;99.90
16485;DHT22;8353;47.856;12.344;2023-04-01T02:01:31;10.60;99.90
16485;DHT22;8353;47.856;12.344;2023-04-01T02:04:21;10.70;99.90
16485;DHT22;8353;47.856;12.344;2023-04-01T02:07:12;10.60;99.90
16485;DHT22;8353;47.856;12.344;2023-04-01T02:10:04;10.60;99.90
16485;DHT22;8353;47.856;12.344;2023-04-01T02:12:52;10.60;99.90
16485;DHT22;8353;47.856;12.344;2023-04-01T02:15:42;10.60;99.90
16485;DHT22;8353;47.856;12.344;2023-04-01T02:18:34;10.60;99.90
16485;DHT22;8353;47.856;12.344;2023-04-01T02:21:24;10.50;99.90
16485;DHT22;8353;47.856;12.344;2023-04-01T02:24:14;10.50;99.90
16485;DHT22;8353;47.856;12.344;2023-04-01T02:27:03;10.50;99.90
16485;DHT22;8353;47.856;12.344;2023-04-01T02:29:50;10.50;99.90
16485;DHT22;8353;47.856;12.344;2023-04-01T02:32:38;10.50;99.90
16485;DHT22;8353;47.856;12.344;2023-04-01T02:35:26;10.50;99.90
16485;DHT22;8353;47.856;12.344;2023-04-01T02:38:12;10.50;99.90
16485;DHT22;8353;47.856;12.344;2023-04-01T02:41:02;10.50;99.90
16485;DHT22;8353;47.856;12.344;2023-04-01T02:43:52;10.50;99.90
16485;DHT22;8353;47.856;12.344;2023-04-01T02:46:38;10.40;99.90
16485;DHT22;8353;47.856;12.344;2023-04-01T02:49:25;10.40;99.90
16485;DHT22;8353;47.856;12.344;2023-04-01T02:52:12;10.50;99.90
16485;DHT22;8353;47.856;12.344;2023-04-01T02:54:59;10.50;99.90
16485;DHT22;8353;47.856;12.344;2023-04-01T02:57:46;10.40;99.90
16485;DHT22;8353;47.856;12.344;2023-04-01T03:00:34;10.40;99.90
16485;DHT22;8353;47.856;12.344;2023-04-01T03:03:21;10.30;99.90
16485;DHT22;8353;47.856;12.344;2023-04-01T03:06:10;10.30;99.90
16485;DHT22;8353;47.856;12.344;2023-04-01T03:08:57;10.30;99.90
16485;DHT22;8353;47.856;12.344;2023-04-01T03:11:44;10.40;99.90
16485;DHT22;8353;47.856;12.344;2023-04-01T03:14:30;10.40;99.90
16485;DHT22;8353;47.856;12.344;2023-04-01T03:17:19;10.40;99.90
16485;DHT22;8353;47.856;12.344;2023-04-01T03:20:07;10.30;99.90
16485;DHT22;8353;47.856;12.344;2023-04-01T03:22:56;10.40;99.90
16485;DHT22;8353;47.856;12.344;2023-04-01T03:25:43;10.40;99.90
16485;DHT22;8353;47.856;12.344;2023-04-01T03:28:29;10.50;99.90
16485;DHT22;8353;47.856;12.344;2023-04-01T03:31:16;10.40;99.90
16485;DHT22;8353;47.856;12.344;2023-04-01T03:34:04;10.40;99.90
16485;DHT22;8353;47.856;12.344;2023-04-01T03:36:51;10.40;99.90
16485;DHT22;8353;47.856;12.344;2023-04-01T03:39:38;10.30;99.90
16485;DHT22;8353;47.856;12.344;2023-04-01T03:42:25;10.30;99.90
16485;DHT22;8353;47.856;12.344;2023-04-01T03:45:12;10.30;99.90
16485;DHT22;8353;47.856;12.344;2023-04-01T03:47:59;10.40;99.90
16485;DHT22;8353;47.856;12.344;2023-04-01T03:50:47;10.30;99.90
16485;DHT22;8353;47.856;12.344;2023-04-01T03:53:34;10.20;99.90
16485;DHT22;8353;47.856;12.344;2023-04-01T03:56:21;10.20;99.90
16485;DHT22;8353;47.856;12.344;2023-04-01T03:59:08;10.20;99.90
16485;DHT22;8353;47.856;12.344;2023-04-01T04:01:55;10.20;99.90
16485;DHT22;8353;47.856;12.344;2023-04-01T04:04:43;10.10;99.90
16485;DHT22;8353;47.856;12.344;2023-04-01T04:07:34;10.00;99.90
16485;DHT22;8353;47.856;12.344;2023-04-01T04:10:21;10.10;99.90
16485;DHT22;8353;47.856;12.344;2023-04-01T04:13:08;10.10;99.90
16485;DHT22;8353;47.856;12.344;2023-04-01T04:15:55;10.10;99.90
16485;DHT22;8353;47.856;12.344;2023-04-01T04:18:42;10.10;99.90
16485;DHT22;8353;47.856;12.344;2023-04-01T04:21:29;10.20;99.90
16485;DHT22;8353;47.856;12.344;2023-04-01T04:24:17;10.10;99.90
16485;DHT22;8353;47.856;12.344;2023-04-01T04:27:04;10.10;99.90
16485;DHT22;8353;47.856;12.344;2023-04-01T04:29:51;10.20;99.90
16485;DHT22;8353;47.856;12.344;2023-04-01T04:32:38;10.20;99.90
16485;DHT22;8353;47.856;12.344;2023-04-01T04:35:26;10.30;99.90
16485;DHT22;8353;47.856;12.344;2023-04-01T04:38:13;10.40;99.90
16485;DHT22;8353;47.856;12.344;2023-04-01T04:41:01;10.30;99.90
16485;DHT22;8353;47.856;12.344;2023-04-01T04:43:50;10.20;99.90
16485;DHT22;8353;47.856;12.344;2023-04-01T04:46:37;10.30;99.90
16485;DHT22;8353;47.856;12.344;2023-04-01T04:49:24;10.20;99.90
16485;DHT22;8353;47.856;12.344;2023-04-01T04:52:11;10.20;99.90
16485;DHT22;8353;47.856;12.344;2023-04-01T04:54:58;10.20;99.90
16485;DHT22;8353;47.856;12.344;2023-04-01T04:57:46;10.30;99.90
16485;DHT22;8353;47.856;12.344;2023-04-01T05:00:33;10.20;99.90
16485;DHT22;8353;47.856;12.344;2023-04-01T05:03:20;10.10;99.90
16485;DHT22;8353;47.856;12.344;2023-04-01T05:06:08;10.10;99.90
16485;DHT22;8353;47.856;12.344;2023-04-01T05:08:55;10.10;99.90
16485;DHT22;8353;47.856;12.344;2023-04-01T05:11:42;10.00;99.90
16485;DHT22;8353;47.856;12.344;2023-04-01T05:14:30;10.00;99.90
16485;DHT22;8353;47.856;12.344;2023-04-01T05:17:17;10.10;99.90
16485;DHT22;8353;47.856;12.344;2023-04-01T05:20:05;10.20;99.90
16485;DHT22;8353;47.856;12.344;2023-04-01T05:22:55;10.20;99.90
16485;DHT22;8353;47.856;12.344;2023-04-01T05:25:43;10.20;99.90
16485;DHT22;8353;47.856;12.344;2023-04-01T05:28:30;10.20;99.90
16485;DHT22;8353;47.856;12.344;2023-04-01T05:31:18;10.30;99.90
16485;DHT22;8353;47.856;12.344;2023-04-01T05:34:05;10.20;99.90
16485;DHT22;8353;47.856;12.344;2023-04-01T05:36:52;10.20;99.90
16485;DHT22;8353;47.856;12.344;2023-04-01T05:39:39;10.30;99.90
16485;DHT22;8353;47.856;12.344;2023-04-01T05:42:26;10.30;99.90
16485;DHT22;8353;47.856;12.344;2023-04-01T05:45:13;10.40;99.90
16485;DHT22;8353;47.856;12.344;2023-04-01T05:48:02;10.40;99.90
16485;DHT22;8353;47.856;12.344;2023-04-01T05:50:49;10.30;99.90
16485;DHT22;8353;47.856;12.344;2023-04-01T05:53:36;10.40;99.90
16485;DHT22;8353;47.856;12.344;2023-04-01T05:56:23;10.30;99.90
16485;DHT22;8353;47.856;12.344;2023-04-01T05:59:11;10.40;99.90
16485;DHT22;8353;47.856;12.344;2023-04-01T06:01:58;10.50;99.90
16485;DHT22;8353;47.856;12.344;2023-04-01T06:04:46;10.50;99.90
16485;DHT22;8353;47.856;12.344;2023-04-01T06:07:33;10.50;99.90
16485;DHT22;8353;47.856;12.344;2023-04-01T06:10:21;10.50;99.90
16485;DHT22;8353;47.856;12.344;2023-04-01T06:13:18;10.60;99.90
16485;DHT22;8353;47.856;12.344;2023-04-01T06:16:18;10.60;99.90
16485;DHT22;8353;47.856;12.344;2023-04-01T06:19:16;10.60;99.90
16485;DHT22;8353;47.856;12.344;2023-04-01T06:22:26;10.60;99.90
16485;DHT22;8353;47.856;12.344;2023-04-01T06:25:28;10.70;99.90
16485;DHT22;8353;47.856;12.344;2023-04-01T06:28:37;10.70;99.90
16485;DHT22;8353;47.856;12.344;2023-04-01T06:31:35;10.80;99.90
16485;DHT22;8353;47.856;12.344;2023-04-01T06:34:37;11.00;99.90
16485;DHT22;8353;47.856;12.344;2023-04-01T06:41:16;11.50;99.90
16485;DHT22;8353;47.856;12.344;2023-04-01T06:44:14;11.50;99.90
16485;DHT22;8353;47.856;12.344;2023-04-01T06:47:14;11.50;99.90
16485;DHT22;8353;47.856;12.344;2023-04-01T06:50:11;11.80;99.90
16485;DHT22;8353;47.856;12.344;2023-04-01T06:53:09;12.10;99.90
16485;DHT22;8353;47.856;12.344;2023-04-01T06:56:02;12.20;99.90
16485;DHT22;8353;47.856;12.344;2023-04-01T06:58:53;12.20;99.90
16485;DHT22;8353;47.856;12.344;2023-04-01T07:01:45;12.00;99.90
16485;DHT22;8353;47.856;12.344;2023-04-01T07:04:34;11.80;99.90
16485;DHT22;8353;47.856;12.344;2023-04-01T07:07:29;11.70;99.90
16485;DHT22;8353;47.856;12.344;2023-04-01T07:10:23;11.80;99.90
16485;DHT22;8353;47.856;12.344;2023-04-01T07:13:15;11.80;99.90
16485;DHT22;8353;47.856;12.344;2023-04-01T07:16:09;11.70;99.90
16485;DHT22;8353;47.856;12.344;2023-04-01T07:19:01;11.80;99.90
16485;DHT22;8353;47.856;12.344;2023-04-01T07:21:51;11.80;99.90
16485;DHT22;8353;47.856;12.344;2023-04-01T07:24:41;11.90;99.90
16485;DHT22;8353;47.856;12.344;2023-04-01T07:27:31;12.00;99.90
16485;DHT22;8353;47.856;12.344;2023-04-01T07:30:21;12.00;99.90
16485;DHT22;8353;47.856;12.344;2023-04-01T07:33:13;12.10;99.90
16485;DHT22;8353;47.856;12.344;2023-04-01T07:36:08;12.00;99.90
16485;DHT22;8353;47.856;12.344;2023-04-01T07:39:06;12.20;99.90
16485;DHT22;8353;47.856;12.344;2023-04-01T07:42:00;12.30;99.90
16485;DHT22;8353;47.856;12.344;2023-04-01T07:44:54;12.50;99.90
16485;DHT22;8353;47.856;12.344;2023-04-01T07:48:01;12.80;99.90
16485;DHT22;8353;47.856;12.344;2023-04-01T07:50:56;12.80;99.90
16485;DHT22;8353;47.856;12.344;2023-04-01T07:53:49;12.80;99.90
16485;DHT22;8353;47.856;12.344;2023-04-01T07:56:42;12.80;99.90
16485;DHT22;8353;47.856;12.344;2023-04-01T07:59:40;12.80;99.90
16485;DHT22;8353;47.856;12.344;2023-04-01T08:02:40;12.90;99.90
16485;DHT22;8353;47.856;12.344;2023-04-01T08:05:32;13.00;99.90
16485;DHT22;8353;47.856;12.344;2023-04-01T08:08:29;13.00;99.90
16485;DHT22;8353;47.856;12.344;2023-04-01T08:11:29;12.90;99.90
16485;DHT22;8353;47.856;12.344;2023-04-01T08:14:23;13.10;99.90
16485;DHT22;8353;47.856;12.344;2023-04-01T08:17:17;13.20;99.90
16485;DHT22;8353;47.856;12.344;2023-04-01T08:20:23;13.20;99.90
16485;DHT22;8353;47.856;12.344;2023-04-01T08:23:14;13.30;99.90
16485;DHT22;8353;47.856;12.344;2023-04-01T08:26:05;13.30;99.90
16485;DHT22;8353;47.856;12.344;2023-04-01T08:28:57;13.30;99.90
16485;DHT22;8353;47.856;12.344;2023-04-01T08:31:49;13.40;99.90
16485;DHT22;8353;47.856;12.344;2023-04-01T08:34:40;13.50;99.90
16485;DHT22;8353;47.856;12.344;2023-04-01T08:37:32;13.60;99.90
16485;DHT22;8353;47.856;12.344;2023-04-01T08:40:55;13.70;99.90
16485;DHT22;8353;47.856;12.344;2023-04-01T08:44:19;13.90;99.90
16485;DHT22;8353;47.856;12.344;2023-04-01T08:47:46;14.00;99.90
16485;DHT22;8353;47.856;12.344;2023-04-01T08:54:14;14.30;99.90
16485;DHT22;8353;47.856;12.344;2023-04-01T08:57:15;14.20;99.90
16485;DHT22;8353;47.856;12.344;2023-04-01T09:00:15;14.30;99.90
16485;DHT22;8353;47.856;12.344;2023-04-01T09:03:31;14.40;99.90
16485;DHT22;8353;47.856;12.344;2023-04-01T09:06:42;14.60;99.90
16485;DHT22;8353;47.856;12.344;2023-04-01T09:13:34;14.80;99.90
16485;DHT22;8353;47.856;12.344;2023-04-01T09:16:37;15.10;99.90
16485;DHT22;8353;47.856;12.344;2023-04-01T09:19:36;15.10;99.90
16485;DHT22;8353;47.856;12.344;2023-04-01T09:22:37;15.20;99.90
16485;DHT22;8353;47.856;12.344;2023-04-01T09:25:41;15.50;99.90
16485;DHT22;8353;47.856;12.344;2023-04-01T09:28:41;15.50;99.90
16485;DHT22;8353;47.856;12.344;2023-04-01T09:31:57;15.30;99.90
16485;DHT22;8353;47.856;12.344;2023-04-01T09:34:53;15.20;99.90
16485;DHT22;8353;47.856;12.344;2023-04-01T09:37:52;15.30;99.90
16485;DHT22;8353;47.856;12.344;2023-04-01T09:40:47;15.40;99.90
16485;DHT22;8353;47.856;12.344;2023-04-01T09:43:56;15.40;99.90
16485;DHT22;8353;47.856;12.344;2023-04-01T09:46:59;15.50;99.90
16485;DHT22;8353;47.856;12.344;2023-04-01T09:49:59;15.50;99.90
16485;DHT22;8353;47.856;12.344;2023-04-01T09:52:55;15.60;99.90
16485;DHT22;8353;47.856;12.344;2023-04-01T09:56:17;15.80;99.90
16485;DHT22;8353;47.856;12.344;2023-04-01T09:59:26;15.60;99.90
16485;DHT22;8353;47.856;12.344;2023-04-01T10:06:04;15.70;99.90
16485;DHT22;8353;47.856;12.344;2023-04-01T10:20:01;15.30;99.90
16485;DHT22;8353;47.856;12.344;2023-04-01T10:23:18;15.30;99.90
16485;DHT22;8353;47.856;12.344;2023-04-01T10:26:26;15.40;99.90
16485;DHT22;8353;47.856;12.344;2023-04-01T10:33:06;15.60;99.90
16485;DHT22;8353;47.856;12.344;2023-04-01T10:36:27;15.70;99.90
16485;DHT22;8353;47.856;12.344;2023-04-01T10:39:37;15.60;99.90
16485;DHT22;8353;47.856;12.344;2023-04-01T10:49:43;15.80;99.90
16485;DHT22;8353;47.856;12.344;2023-04-01T10:56:38;15.50;99.90
16485;DHT22;8353;47.856;12.344;2023-04-01T11:00:03;15.50;99.90
16485;DHT22;8353;47.856;12.344;2023-04-01T11:03:33;15.50;99.90
16485;DHT22;8353;47.856;12.344;2023-04-01T11:13:52;15.50;99.90
16485;DHT22;8353;47.856;12.344;2023-04-01T11:17:20;15.40;99.90
16485;DHT22;8353;47.856;12.344;2023-04-01T11:23:44;15.60;99.90
16485;DHT22;8353;47.856;12.344;2023-04-01T11:26:41;15.50;99.90
16485;DHT22;8353;47.856;12.344;2023-04-01T11:29:43;15.50;99.90
16485;DHT22;8353;47.856;12.344;2023-04-01T11:32:42;15.40;99.90
16485;DHT22;8353;47.856;12.344;2023-04-01T11:35:47;15.30;99.90
16485;DHT22;8353;47.856;12.344;2023-04-01T11:38:53;15.30;99.90
16485;DHT22;8353;47.856;12.344;2023-04-01T11:41:48;15.20;99.90
16485;DHT22;8353;47.856;12.344;2023-04-01T11:44:42;15.10;99.90
16485;DHT22;8353;47.856;12.344;2023-04-01T11:47:49;15.00;99.90
16485;DHT22;8353;47.856;12.344;2023-04-01T11:50:50;14.90;99.90
16485;DHT22;8353;47.856;12.344;2023-04-01T11:53:47;14.80;99.90
16485;DHT22;8353;47.856;12.344;2023-04-01T11:56:45;14.80;99.90
16485;DHT22;8353;47.856;12.344;2023-04-01T11:59:57;14.70;99.90
16485;DHT22;8353;47.856;12.344;2023-04-01T12:03:07;14.70;99.90
16485;DHT22;8353;47.856;12.344;2023-04-01T12:06:02;14.70;99.90
16485;DHT22;8353;47.856;12.344;2023-04-01T12:08:57;14.70;99.90
16485;DHT22;8353;47.856;12.344;2023-04-01T12:12:06;14.60;99.90
16485;DHT22;8353;47.856;12.344;2023-04-01T12:15:06;14.50;99.90
16485;DHT22;8353;47.856;12.344;2023-04-01T12:18:02;14.50;99.90
16485;DHT22;8353;47.856;12.344;2023-04-01T12:20:52;14.30;99.90
16485;DHT22;8353;47.856;12.344;2023-04-01T12:27:02;14.50;99.90
16485;DHT22;8353;47.856;12.344;2023-04-01T12:36:46;14.40;99.90
16485;DHT22;8353;47.856;12.344;2023-04-01T12:39:58;14.40;99.90
16485;DHT22;8353;47.856;12.344;2023-04-01T12:43:08;14.40;99.90
16485;DHT22;8353;47.856;12.344;2023-04-01T12:46:10;14.30;99.90
16485;DHT22;8353;47.856;12.344;2023-04-01T12:49:12;14.20;99.90
16485;DHT22;8353;47.856;12.344;2023-04-01T12:52:08;14.10;99.90
16485;DHT22;8353;47.856;12.344;2023-04-01T12:55:28;14.00;99.90
16485;DHT22;8353;47.856;12.344;2023-04-01T12:59:02;13.90;99.90
16485;DHT22;8353;47.856;12.344;2023-04-01T13:02:11;13.70;99.90
16485;DHT22;8353;47.856;12.344;2023-04-01T13:05:33;13.80;99.90
16485;DHT22;8353;47.856;12.344;2023-04-01T13:08:35;13.90;99.90
16485;DHT22;8353;47.856;12.344;2023-04-01T13:11:36;13.80;99.90
16485;DHT22;8353;47.856;12.344;2023-04-01T13:15:03;13.70;99.90
16485;DHT22;8353;47.856;12.344;2023-04-01T13:17:58;13.80;99.90
16485;DHT22;8353;47.856;12.344;2023-04-01T13:20:58;13.70;99.90
16485;DHT22;8353;47.856;12.344;2023-04-01T13:23:55;13.60;99.90
16485;DHT22;8353;47.856;12.344;2023-04-01T13:26:55;13.70;99.90
16485;DHT22;8353;47.856;12.344;2023-04-01T13:29:57;13.50;99.90
16485;DHT22;8353;47.856;12.344;2023-04-01T13:32:59;13.40;99.90
16485;DHT22;8353;47.856;12.344;2023-04-01T13:35:54;13.20;99.90
16485;DHT22;8353;47.856;12.344;2023-04-01T13:39:00;13.10;99.90
16485;DHT22;8353;47.856;12.344;2023-04-01T13:42:01;13.10;99.90
16485;DHT22;8353;47.856;12.344;2023-04-01T13:44:56;13.10;99.90
16485;DHT22;8353;47.856;12.344;2023-04-01T13:51:49;13.10;99.90
16485;DHT22;8353;47.856;12.344;2023-04-01T13:54:54;12.90;99.90
16485;DHT22;8353;47.856;12.344;2023-04-01T13:57:55;12.70;99.90
16485;DHT22;8353;47.856;12.344;2023-04-01T14:00:54;12.70;99.90
16485;DHT22;8353;47.856;12.344;2023-04-01T14:07:19;12.70;99.90
16485;DHT22;8353;47.856;12.344;2023-04-01T14:10:18;12.70;99.90
16485;DHT22;8353;47.856;12.344;2023-04-01T14:13:12;12.70;99.90
16485;DHT22;8353;47.856;12.344;2023-04-01T14:19:27;12.90;99.90
16485;DHT22;8353;47.856;12.344;2023-04-01T14:22:23;13.00;99.90
16485;DHT22;8353;47.856;12.344;2023-04-01T14:25:46;12.90;99.90
16485;DHT22;8353;47.856;12.344;2023-04-01T14:28:41;12.70;99.90
16485;DHT22;8353;47.856;12.344;2023-04-01T14:31:42;12.50;99.90
16485;DHT22;8353;47.856;12.344;2023-04-01T14:34:43;12.60;99.90
16485;DHT22;8353;47.856;12.344;2023-04-01T14:37:58;12.50;99.90
16485;DHT22;8353;47.856;12.344;2023-04-01T14:41:09;12.30;99.90
16485;DHT22;8353;47.856;12.344;2023-04-01T14:44:24;12.20;99.90
16485;DHT22;8353;47.856;12.344;2023-04-01T14:47:32;12.20;99.90
16485;DHT22;8353;47.856;12.344;2023-04-01T14:50:25;12.10;99.90
16485;DHT22;8353;47.856;12.344;2023-04-01T14:53:26;12.00;99.90
16485;DHT22;8353;47.856;12.344;2023-04-01T14:56:39;12.10;99.90
16485;DHT22;8353;47.856;12.344;2023-04-01T14:59:28;12.10;99.90
16485;DHT22;8353;47.856;12.344;2023-04-01T15:02:33;12.00;99.90
16485;DHT22;8353;47.856;12.344;2023-04-01T15:05:32;12.20;99.90
16485;DHT22;8353;47.856;12.344;2023-04-01T15:08:26;12.20;99.90
16485;DHT22;8353;47.856;12.344;2023-04-01T15:11:23;12.30;99.90
16485;DHT22;8353;47.856;12.344;2023-04-01T15:17:53;12.10;99.90
16485;DHT22;8353;47.856;12.344;2023-04-01T15:20:53;12.10;99.90
16485;DHT22;8353;47.856;12.344;2023-04-01T15:23:56;12.10;99.90
16485;DHT22;8353;47.856;12.344;2023-04-01T15:27:20;12.10;99.90
16485;DHT22;8353;47.856;12.344;2023-04-01T15:30:34;12.10;99.90
16485;DHT22;8353;47.856;12.344;2023-04-01T15:33:42;12.10;99.90
16485;DHT22;8353;47.856;12.344;2023-04-01T15:36:39;12.10;99.90
16485;DHT22;8353;47.856;12.344;2023-04-01T15:39:43;12.10;99.90
16485;DHT22;8353;47.856;12.344;2023-04-01T15:42:46;12.10;99.90
16485;DHT22;8353;47.856;12.344;2023-04-01T15:45:43;11.90;99.90
16485;DHT22;8353;47.856;12.344;2023-04-01T15:48:44;11.80;99.90
16485;DHT22;8353;47.856;12.344;2023-04-01T15:51:44;11.80;99.90
16485;DHT22;8353;47.856;12.344;2023-04-01T15:55:07;11.70;99.90
16485;DHT22;8353;47.856;12.344;2023-04-01T15:58:18;11.60;99.90
16485;DHT22;8353;47.856;12.344;2023-04-01T16:01:16;11.50;99.90
16485;DHT22;8353;47.856;12.344;2023-04-01T16:04:26;11.60;99.90
16485;DHT22;8353;47.856;12.344;2023-04-01T16:07:37;11.60;99.90
16485;DHT22;8353;47.856;12.344;2023-04-01T16:10:38;11.60;99.90
16485;DHT22;8353;47.856;12.344;2023-04-01T16:13:36;11.70;99.90
16485;DHT22;8353;47.856;12.344;2023-04-01T16:16:42;11.60;99.90
16485;DHT22;8353;47.856;12.344;2023-04-01T16:19:49;11.60;99.90
16485;DHT22;8353;47.856;12.344;2023-04-01T16:22:39;11.70;99.90
16485;DHT22;8353;47.856;12.344;2023-04-01T16:25:33;11.80;99.90
16485;DHT22;8353;47.856;12.344;2023-04-01T16:28:26;11.80;99.90
16485;DHT22;8353;47.856;12.344;2023-04-01T16:31:16;11.80;99.90
16485;DHT22;8353;47.856;12.344;2023-04-01T16:34:18;11.80;99.90
16485;DHT22;8353;47.856;12.344;2023-04-01T16:37:10;11.80;99.90
16485;DHT22;8353;47.856;12.344;2023-04-01T16:40:10;11.80;99.90
16485;DHT22;8353;47.856;12.344;2023-04-01T16:43:06;11.80;99.90
16485;DHT22;8353;47.856;12.344;2023-04-01T16:46:14;11.80;99.90
16485;DHT22;8353;47.856;12.344;2023-04-01T16:49:23;11.80;99.90
16485;DHT22;8353;47.856;12.344;2023-04-01T16:52:16;11.80;99.90
16485;DHT22;8353;47.856;12.344;2023-04-01T16:55:15;11.80;99.90
16485;DHT22;8353;47.856;12.344;2023-04-01T16:58:02;11.70;99.90
16485;DHT22;8353;47.856;12.344;2023-04-01T17:00:52;11.80;99.90
16485;DHT22;8353;47.856;12.344;2023-04-01T17:03:44;11.70;99.90
16485;DHT22;8353;47.856;12.344;2023-04-01T17:06:39;11.70;99.90
16485;DHT22;8353;47.856;12.344;2023-04-01T17:09:40;11.70;99.90
16485;DHT22;8353;47.856;12.344;2023-04-01T17:12:37;11.70;99.90
16485;DHT22;8353;47.856;12.344;2023-04-01T17:15:30;11.70;99.90
16485;DHT22;8353;47.856;12.344;2023-04-01T17:18:26;11.70;99.90
16485;DHT22;8353;47.856;12.344;2023-04-01T17:21:22;11.60;99.90
16485;DHT22;8353;47.856;12.344;2023-04-01T17:24:25;11.60;99.90
16485;DHT22;8353;47.856;12.344;2023-04-01T17:27:27;11.70;99.90
16485;DHT22;8353;47.856;12.344;2023-04-01T17:30:25;11.70;99.90
16485;DHT22;8353;47.856;12.344;2023-04-01T17:33:35;11.70;99.90
16485;DHT22;8353;47.856;12.344;2023-04-01T17:36:36;11.60;99.90
16485;DHT22;8353;47.856;12.344;2023-04-01T17:39:57;11.60;99.90
16485;DHT22;8353;47.856;12.344;2023-04-01T17:42:50;11.50;99.90
16485;DHT22;8353;47.856;12.344;2023-04-01T17:45:45;11.50;99.90
16485;DHT22;8353;47.856;12.344;2023-04-01T17:48:43;11.70;99.90
16485;DHT22;8353;47.856;12.344;2023-04-01T17:51:35;11.60;99.90
16485;DHT22;8353;47.856;12.344;2023-04-01T17:54:28;11.60;99.90
16485;DHT22;8353;47.856;12.344;2023-04-01T17:57:34;11.60;99.90
16485;DHT22;8353;47.856;12.344;2023-04-01T18:00:30;11.60;99.90
16485;DHT22;8353;47.856;12.344;2023-04-01T18:03:29;11.70;99.90
16485;DHT22;8353;47.856;12.344;2023-04-01T18:06:21;11.70;99.90
16485;DHT22;8353;47.856;12.344;2023-04-01T18:09:22;11.60;99.90
16485;DHT22;8353;47.856;12.344;2023-04-01T18:12:21;11.60;99.90
16485;DHT22;8353;47.856;12.344;2023-04-01T18:15:21;11.50;99.90
16485;DHT22;8353;47.856;12.344;2023-04-01T18:18:35;11.50;99.90
16485;DHT22;8353;47.856;12.344;2023-04-01T18:21:29;11.50;99.90
16485;DHT22;8353;47.856;12.344;2023-04-01T18:24:24;11.50;99.90
16485;DHT22;8353;47.856;12.344;2023-04-01T18:27:17;11.50;99.90
16485;DHT22;8353;47.856;12.344;2023-04-01T18:30:13;11.60;99.90
16485;DHT22;8353;47.856;12.344;2023-04-01T18:33:04;11.50;99.90
16485;DHT22;8353;47.856;12.344;2023-04-01T18:35:58;11.50;99.90
16485;DHT22;8353;47.856;12.344;2023-04-01T18:38:52;11.50;99.90
16485;DHT22;8353;47.856;12.344;2023-04-01T18:41:51;11.50;99.90
16485;DHT22;8353;47.856;12.344;2023-04-01T18:44:45;11.60;99.90
16485;DHT22;8353;47.856;12.344;2023-04-01T18:47:41;11.60;99.90
16485;DHT22;8353;47.856;12.344;2023-04-01T18:50:38;11.50;99.90
16485;DHT22;8353;47.856;12.344;2023-04-01T18:53:31;11.50;99.90
16485;DHT22;8353;47.856;12.344;2023-04-01T18:56:29;11.60;99.90
16485;DHT22;8353;47.856;12.344;2023-04-01T18:59:21;11.60;99.90
16485;DHT22;8353;47.856;12.344;2023-04-01T19:02:24;11.60;99.90
16485;DHT22;8353;47.856;12.344;2023-04-01T19:05:18;11.60;99.90
16485;DHT22;8353;47.856;12.344;2023-04-01T19:08:18;11.60;99.90
16485;DHT22;8353;47.856;12.344;2023-04-01T19:11:10;11.60;99.90
16485;DHT22;8353;47.856;12.344;2023-04-01T19:14:05;11.70;99.90
16485;DHT22;8353;47.856;12.344;2023-04-01T19:17:02;11.70;99.90
16485;DHT22;8353;47.856;12.344;2023-04-01T19:19:56;11.60;99.90
16485;DHT22;8353;47.856;12.344;2023-04-01T19:23:31;11.70;99.90
16485;DHT22;8353;47.856;12.344;2023-04-01T19:26:21;11.60;99.90
16485;DHT22;8353;47.856;12.344;2023-04-01T19:29:22;11.70;99.90
16485;DHT22;8353;47.856;12.344;2023-04-01T19:32:20;11.70;99.90
16485;DHT22;8353;47.856;12.344;2023-04-01T19:35:19;11.70;99.90
16485;DHT22;8353;47.856;12.344;2023-04-01T19:38:14;11.70;99.90
16485;DHT22;8353;47.856;12.344;2023-04-01T19:41:16;11.70;99.90
16485;DHT22;8353;47.856;12.344;2023-04-01T19:44:19;11.70;99.90
16485;DHT22;8353;47.856;12.344;2023-04-01T19:47:17;11.60;99.90
16485;DHT22;8353;47.856;12.344;2023-04-01T19:50:19;11.60;99.90
16485;DHT22;8353;47.856;12.344;2023-04-01T19:53:16;11.50;99.90